Time,TemperatureF,DewpointF,PressureIn,WindDirection,WindDirectionDegrees,WindSpeedMPH,WindSpeedGustMPH,Humidity,HourlyPrecipIn,Conditions,Clouds,dailyrainin,SoftwareType,DateUTC
2013-01-28 00:02:00,15.0,-99.9,30.05,NNW,336,8.0,16.0,-999,-99.99,,,-99.99,,2013-01-28 09:02:00,
2013-01-28 00:12:00,-999.0,-99.9,30.04,NW,317,9.0,16.0,-999,-99.99,,,-99.99,,2013-01-28 09:12:00,
2013-01-28 00:22:00,-999.0,-99.9,30.04,NNW,336,11.0,18.0,-999,-99.99,,,-99.99,,2013-01-28 09:22:00,
2013-01-28 00:32:00,15.0,-99.9,30.04,NNW,337,10.0,20.0,-999,-99.99,,,-99.99,,2013-01-28 09:32:00,
2013-01-28 00:42:00,-999.0,-99.9,30.03,NW,320,9.0,18.0,-999,-99.99,,,-99.99,,2013-01-28 09:42:00,
2013-01-28 00:52:00,15.0,-99.9,30.03,NNW,332,12.0,21.0,-999,-99.99,,,-99.99,,2013-01-28 09:52:00,
2013-01-28 01:02:00,-999.0,-99.9,30.03,NNW,331,13.0,24.0,-999,-99.99,,,-99.99,,2013-01-28 10:02:00,
2013-01-28 01:11:00,15.0,-99.9,30.03,NNW,334,13.0,21.0,-999,-99.99,,,-99.99,,2013-01-28 10:11:00,
2013-01-28 01:21:00,15.0,-99.9,30.03,NNW,334,13.0,21.0,-999,-99.99,,,-99.99,,2013-01-28 10:21:00,
2013-01-28 01:32:00,15.0,-99.9,30.03,NNW,334,13.0,21.0,-999,-99.99,,,-99.99,,2013-01-28 10:32:00,
2013-01-28 01:52:00,14.0,-99.9,30.03,NNW,327,15.0,30.0,-999,-99.99,,,-99.99,,2013-01-28 10:52:00,
2013-01-28 02:02:00,14.0,-99.9,30.03,NNW,339,14.0,24.0,-999,-99.99,,,-99.99,,2013-01-28 11:02:00,
2013-01-28 02:11:00,-999.0,-99.9,30.03,NNW,327,15.0,26.0,-999,-99.99,,,-99.99,,2013-01-28 11:11:00,
2013-01-28 02:22:00,-999.0,-99.9,30.03,NW,315,17.0,26.0,-999,-99.99,,,-99.99,,2013-01-28 11:22:00,
2013-01-28 02:33:00,-999.0,-99.9,30.03,WNW,291,17.0,28.0,-999,-99.99,,,-99.99,,2013-01-28 11:33:00,
2013-01-28 02:42:00,-999.0,-99.9,30.02,NW,319,8.0,18.0,-999,-99.99,,,-99.99,,2013-01-28 11:42:00,
2013-01-28 02:52:00,-999.0,-99.9,30.02,NNW,338,12.0,21.0,-999,-99.99,,,-99.99,,2013-01-28 11:52:00,
2013-01-28 03:03:00,15.0,-99.9,30.01,North,9,3.0,11.0,-999,-99.99,,,-99.99,,2013-01-28 12:03:00,
2013-01-28 03:12:00,-999.0,-99.9,30.01,NE,39,5.0,14.0,-999,-99.99,,,-99.99,,2013-01-28 12:12:00,
2013-01-28 03:23:00,-999.0,-99.9,30.01,North,352,9.0,19.0,-999,-99.99,,,-99.99,,2013-01-28 12:23:00,
2013-01-28 03:33:00,15.0,-99.9,30.01,West,270,3.0,18.0,-999,-99.99,,,-99.99,,2013-01-28 12:33:00,
2013-01-28 03:42:00,-999.0,-99.9,30.01,North,349,13.0,21.0,-999,-99.99,,,-99.99,,2013-01-28 12:42:00,
2013-01-28 03:53:00,-999.0,-99.9,30.01,North,357,11.0,21.0,-999,-99.99,,,-99.99,,2013-01-28 12:53:00,
2013-01-28 04:00:00,-999.0,-99.9,30.01,NNW,336,17.0,24.0,-999,-99.99,,,-99.99,,2013-01-28 13:00:00,
2013-01-28 04:03:00,15.0,-99.9,30.01,NNW,344,6.0,23.0,-999,-99.99,,,-99.99,,2013-01-28 13:03:00,
2013-01-28 04:12:00,-999.0,-99.9,30.01,NNW,342,9.0,19.0,-999,-99.99,,,-99.99,,2013-01-28 13:12:00,
2013-01-28 04:23:00,-999.0,-99.9,30.01,NNW,336,17.0,24.0,-999,-99.99,,,-99.99,,2013-01-28 13:23:00,
2013-01-28 04:33:00,-999.0,-99.9,30.01,NNW,336,17.0,24.0,-999,-99.99,,,-99.99,,2013-01-28 13:33:00,
2013-01-28 04:43:00,-999.0,-99.9,30.01,NNW,336,17.0,24.0,-999,-99.99,,,-99.99,,2013-01-28 13:43:00,
2013-01-28 04:53:00,-999.0,-99.9,30.01,NNW,336,17.0,24.0,-999,-99.99,,,-99.99,,2013-01-28 13:53:00,
2013-01-28 05:12:00,-999.0,-99.9,30.00,NNW,341,5.0,16.0,-999,-99.99,,,-99.99,,2013-01-28 14:12:00,
2013-01-28 05:23:00,-999.0,-99.9,29.99,NW,326,13.0,21.0,-999,-99.99,,,-99.99,,2013-01-28 14:23:00,
2013-01-28 05:33:00,15.0,-99.9,29.99,NNW,341,11.0,19.0,-999,-99.99,,,-99.99,,2013-01-28 14:33:00,
2013-01-28 05:43:00,-999.0,-99.9,29.99,WNW,295,10.0,21.0,-999,-99.99,,,-99.99,,2013-01-28 14:43:00,
2013-01-28 05:53:00,-999.0,-99.9,29.98,NW,312,11.0,17.0,-999,-99.99,,,-99.99,,2013-01-28 14:53:00,
2013-01-28 06:03:00,-999.0,-99.9,29.97,NW,324,11.0,23.0,-999,-99.99,,,-99.99,,2013-01-28 15:03:00,
2013-01-28 06:13:00,-999.0,-99.9,29.97,NW,317,11.0,21.0,-999,-99.99,,,-99.99,,2013-01-28 15:13:00,
2013-01-28 06:24:00,-999.0,-99.9,29.98,NW,316,8.0,20.0,-999,-99.99,,,-99.99,,2013-01-28 15:24:00,
2013-01-28 06:33:00,15.0,-99.9,29.97,WNW,300,11.0,16.0,-999,-99.99,,,-99.99,,2013-01-28 15:33:00,
2013-01-28 06:43:00,-999.0,-99.9,29.97,WNW,299,9.0,14.0,-999,-99.99,,,-99.99,,2013-01-28 15:43:00,
2013-01-28 06:54:00,-999.0,-99.9,29.97,West,266,7.0,9.0,-999,-99.99,,,-99.99,,2013-01-28 15:54:00,
2013-01-28 07:04:00,16.0,-99.9,29.97,West,266,9.0,13.0,-999,-99.99,,,-99.99,,2013-01-28 16:04:00,
2013-01-28 07:13:00,16.0,-99.9,29.97,WNW,282,7.0,17.0,-999,-99.99,,,-99.99,,2013-01-28 16:13:00,
2013-01-28 07:22:00,16.0,-99.9,29.97,WNW,282,7.0,17.0,-999,-99.99,,,-99.99,,2013-01-28 16:22:00,
2013-01-28 07:33:00,15.0,-99.9,29.96,ENE,67,2.0,4.0,-999,-99.99,,,-99.99,,2013-01-28 16:33:00,
2013-01-28 07:43:00,-999.0,-99.9,29.94,SE,130,8.0,10.0,-999,-99.99,,,-99.99,,2013-01-28 16:43:00,
2013-01-28 07:53:00,-999.0,-99.9,29.94,SSE,162,5.0,8.0,-999,-99.99,,,-99.99,,2013-01-28 16:53:00,
2013-01-28 08:02:00,15.0,-99.9,29.94,South,180,3.0,8.0,-999,-99.99,,,-99.99,,2013-01-28 17:02:00,
2013-01-28 08:12:00,-999.0,-99.9,29.94,South,179,9.0,14.0,-999,-99.99,,,-99.99,,2013-01-28 17:12:00,
2013-01-28 08:23:00,-999.0,-99.9,29.93,South,172,8.0,14.0,-999,-99.99,,,-99.99,,2013-01-28 17:23:00,
2013-01-28 08:33:00,15.0,-99.9,29.93,South,175,9.0,10.0,-999,-99.99,,,-99.99,,2013-01-28 17:33:00,
2013-01-28 08:42:00,-999.0,-99.9,29.93,South,169,9.0,11.0,-999,-99.99,,,-99.99,,2013-01-28 17:42:00,
2013-01-28 08:53:00,15.0,-99.9,29.93,South,173,9.0,11.0,-999,-99.99,,,-99.99,,2013-01-28 17:53:00,
2013-01-28 09:03:00,-999.0,-99.9,29.93,ESE,122,2.0,10.0,-999,-99.99,,,-99.99,,2013-01-28 18:03:00,
2013-01-28 09:13:00,-999.0,-99.9,29.92,SSE,165,8.0,10.0,-999,-99.99,,,-99.99,,2013-01-28 18:13:00,
2013-01-28 09:23:00,-999.0,-99.9,29.91,East,93,2.0,9.0,-999,-99.99,,,-99.99,,2013-01-28 18:23:00,
2013-01-28 09:33:00,16.0,-99.9,29.91,SSE,151,3.0,5.0,-999,-99.99,,,-99.99,,2013-01-28 18:33:00,
2013-01-28 09:43:00,-999.0,-99.9,29.91,South,187,4.0,7.0,-999,-99.99,,,-99.99,,2013-01-28 18:43:00,
2013-01-28 09:53:00,-999.0,-99.9,29.90,SE,137,4.0,6.0,-999,-99.99,,,-99.99,,2013-01-28 18:53:00,
2013-01-28 10:03:00,-999.0,-99.9,29.90,SE,137,4.0,6.0,-999,-99.99,,,-99.99,,2013-01-28 19:03:00,
2013-01-28 10:13:00,-999.0,-99.9,29.90,SE,137,4.0,6.0,-999,-99.99,,,-99.99,,2013-01-28 19:13:00,
2013-01-28 10:23:00,23.0,-99.9,29.89,North,2,10.0,15.0,-999,-99.99,,,-99.99,,2013-01-28 19:23:00,
2013-01-28 10:33:00,-999.0,-99.9,29.88,NNE,23,15.0,32.0,-999,-99.99,,,-99.99,,2013-01-28 19:33:00,
2013-01-28 10:43:00,-999.0,-99.9,29.88,NNE,24,16.0,22.0,-999,-99.99,,,-99.99,,2013-01-28 19:43:00,
2013-01-28 10:53:00,24.0,-99.9,29.88,NNE,17,13.0,22.0,-999,-99.99,,,-99.99,,2013-01-28 19:53:00,
2013-01-28 11:03:00,24.0,-99.9,29.88,NNE,17,13.0,22.0,-999,-99.99,,,-99.99,,2013-01-28 20:03:00,
2013-01-28 11:12:00,25.0,-99.9,29.87,North,3,10.0,17.0,-999,-99.99,,,-99.99,,2013-01-28 20:12:00,
2013-01-28 11:22:00,-999.0,-99.9,29.86,North,11,16.0,25.0,-999,-99.99,,,-99.99,,2013-01-28 20:22:00,
2013-01-28 11:33:00,25.0,-99.9,29.85,NNE,16,17.0,29.0,-999,-99.99,,,-99.99,,2013-01-28 20:33:00,
2013-01-28 11:43:00,-999.0,-99.9,29.85,NNE,12,19.0,27.0,-999,-99.99,,,-99.99,,2013-01-28 20:43:00,
2013-01-28 11:53:00,-999.0,-99.9,29.84,NNE,13,18.0,27.0,-999,-99.99,,,-99.99,,2013-01-28 20:53:00,
2013-01-28 12:03:00,-999.0,-99.9,29.84,NNE,13,18.0,27.0,-999,-99.99,,,-99.99,,2013-01-28 21:03:00,
2013-01-28 12:12:00,-999.0,-99.9,29.83,North,9,15.0,28.0,-999,-99.99,,,-99.99,,2013-01-28 21:12:00,
2013-01-28 12:23:00,-999.0,-99.9,29.83,NNE,14,16.0,24.0,-999,-99.99,,,-99.99,,2013-01-28 21:23:00,
2013-01-28 12:34:00,26.0,-99.9,29.83,North,10,15.0,23.0,-999,-99.99,,,-99.99,,2013-01-28 21:34:00,
2013-01-28 12:43:00,26.0,-99.9,29.82,NNE,13,16.0,27.0,-999,-99.99,,,-99.99,,2013-01-28 21:43:00,
2013-01-28 12:53:00,-999.0,-99.9,29.81,North,7,17.0,27.0,-999,-99.99,,,-99.99,,2013-01-28 21:53:00,
2013-01-28 13:02:00,26.0,-99.9,29.81,North,7,17.0,26.0,-999,-99.99,,,-99.99,,2013-01-28 22:02:00,
2013-01-28 13:12:00,-999.0,-99.9,29.79,NNE,12,20.0,26.0,-999,-99.99,,,-99.99,,2013-01-28 22:12:00,
2013-01-28 13:23:00,-999.0,-99.9,29.79,NNE,16,16.0,22.0,-999,-99.99,,,-99.99,,2013-01-28 22:23:00,
2013-01-28 13:33:00,26.0,-99.9,29.78,North,11,19.0,26.0,-999,-99.99,,,-99.99,,2013-01-28 22:33:00,
2013-01-28 13:43:00,-999.0,-99.9,29.79,NNE,14,15.0,27.0,-999,-99.99,,,-99.99,,2013-01-28 22:43:00,
2013-01-28 13:53:00,-999.0,-99.9,29.78,NNE,22,16.0,27.0,-999,-99.99,,,-99.99,,2013-01-28 22:53:00,
2013-01-28 14:03:00,27.0,-99.9,29.78,NNE,13,17.0,32.0,-999,-99.99,,,-99.99,,2013-01-28 23:03:00,
2013-01-28 14:12:00,-999.0,-99.9,29.77,NNE,15,20.0,32.0,-999,-99.99,,,-99.99,,2013-01-28 23:12:00,
2013-01-28 14:22:00,-999.0,-99.9,29.76,NNE,14,17.0,27.0,-999,-99.99,,,-99.99,,2013-01-28 23:22:00,
2013-01-28 14:33:00,27.0,-99.9,29.75,NNE,16,19.0,26.0,-999,-99.99,,,-99.99,,2013-01-28 23:33:00,
2013-01-28 14:42:00,-999.0,-99.9,29.75,NNE,12,17.0,24.0,-999,-99.99,,,-99.99,,2013-01-28 23:42:00,
2013-01-28 14:53:00,-999.0,-99.9,29.75,NNE,16,20.0,26.0,-999,-99.99,,,-99.99,,2013-01-28 23:53:00,
2013-01-28 15:02:00,27.0,-99.9,29.74,NNE,22,17.0,31.0,-999,-99.99,,,-99.99,,2013-01-29 00:02:00,
2013-01-28 15:12:00,-999.0,-99.9,29.74,NNE,21,20.0,28.0,-999,-99.99,,,-99.99,,2013-01-29 00:12:00,
2013-01-28 15:22:00,-999.0,-99.9,29.73,NNE,15,17.0,25.0,-999,-99.99,,,-99.99,,2013-01-29 00:22:00,
2013-01-28 15:33:00,27.0,-99.9,29.73,NNE,19,16.0,26.0,-999,-99.99,,,-99.99,,2013-01-29 00:33:00,
2013-01-28 15:42:00,-999.0,-99.9,29.73,NNE,14,16.0,26.0,-999,-99.99,,,-99.99,,2013-01-29 00:42:00,
2013-01-28 15:52:00,-999.0,-99.9,29.72,NNE,19,17.0,28.0,-999,-99.99,,,-99.99,,2013-01-29 00:52:00,
2013-01-28 16:02:00,28.0,-99.9,29.72,NNE,18,12.0,26.0,-999,-99.99,,,-99.99,,2013-01-29 01:02:00,
2013-01-28 16:12:00,-999.0,-99.9,29.71,NNE,15,16.0,32.0,-999,-99.99,,,-99.99,,2013-01-29 01:12:00,
2013-01-28 16:23:00,-999.0,-99.9,29.72,NNE,20,20.0,32.0,-999,-99.99,,,-99.99,,2013-01-29 01:23:00,
2013-01-28 16:32:00,28.0,-99.9,29.71,NNE,21,17.0,26.0,-999,-99.99,,,-99.99,,2013-01-29 01:32:00,
2013-01-28 16:42:00,-999.0,-99.9,29.70,NNE,12,17.0,23.0,-999,-99.99,,,-99.99,,2013-01-29 01:42:00,
2013-01-28 16:53:00,28.0,-99.9,29.70,North,9,16.0,26.0,-999,-99.99,,,-99.99,,2013-01-29 01:53:00,
2013-01-28 17:02:00,28.0,-99.9,29.70,North,9,16.0,26.0,-999,-99.99,,,-99.99,,2013-01-29 02:02:00,
2013-01-28 17:12:00,-999.0,-99.9,29.69,North,10,20.0,28.0,-999,-99.99,,,-99.99,,2013-01-29 02:12:00,
2013-01-28 17:22:00,-999.0,-99.9,29.67,North,9,13.0,23.0,-999,-99.99,,,-99.99,,2013-01-29 02:22:00,
2013-01-28 17:33:00,28.0,-99.9,29.67,NNE,16,18.0,27.0,-999,-99.99,,,-99.99,,2013-01-29 02:33:00,
2013-01-28 17:42:00,-999.0,-99.9,29.66,North,8,11.0,17.0,-999,-99.99,,,-99.99,,2013-01-29 02:42:00,
2013-01-28 17:53:00,-999.0,-99.9,29.65,North,9,14.0,24.0,-999,-99.99,,,-99.99,,2013-01-29 02:53:00,
2013-01-28 18:03:00,29.0,-99.9,29.65,North,6,14.0,23.0,-999,-99.99,,,-99.99,,2013-01-29 03:03:00,
2013-01-28 18:12:00,29.0,-99.9,29.65,North,9,17.0,27.0,-999,-99.99,,,-99.99,,2013-01-29 03:12:00,
2013-01-28 18:22:00,29.0,-99.9,29.65,North,9,17.0,27.0,-999,-99.99,,,-99.99,,2013-01-29 03:22:00,
2013-01-28 18:32:00,29.0,-99.9,29.63,North,9,17.0,25.0,-999,-99.99,,,-99.99,,2013-01-29 03:32:00,
2013-01-28 18:42:00,-999.0,-99.9,29.62,North,5,18.0,23.0,-999,-99.99,,,-99.99,,2013-01-29 03:42:00,
2013-01-28 18:53:00,-999.0,-99.9,29.62,North,1,15.0,27.0,-999,-99.99,,,-99.99,,2013-01-29 03:53:00,
2013-01-28 19:03:00,29.0,-99.9,29.62,North,6,21.0,27.0,-999,-99.99,,,-99.99,,2013-01-29 04:03:00,
2013-01-28 19:12:00,-999.0,-99.9,29.60,North,7,15.0,29.0,-999,-99.99,,,-99.99,,2013-01-29 04:12:00,
2013-01-28 19:22:00,-999.0,-99.9,29.60,North,8,19.0,30.0,-999,-99.99,,,-99.99,,2013-01-29 04:22:00,
2013-01-28 19:32:00,30.0,-99.9,29.59,North,5,16.0,27.0,-999,-99.99,,,-99.99,,2013-01-29 04:32:00,
2013-01-28 19:42:00,-999.0,-99.9,29.58,North,4,16.0,28.0,-999,-99.99,,,-99.99,,2013-01-29 04:42:00,
2013-01-28 19:52:00,-999.0,-99.9,29.57,North,5,18.0,29.0,-999,-99.99,,,-99.99,,2013-01-29 04:52:00,
2013-01-28 20:04:00,30.0,-99.9,29.57,North,7,20.0,27.0,-999,-99.99,,,-99.99,,2013-01-29 05:04:00,
2013-01-28 20:12:00,-999.0,-99.9,29.57,North,4,18.0,24.0,-999,-99.99,,,-99.99,,2013-01-29 05:12:00,
2013-01-28 20:22:00,30.0,-99.9,29.56,North,359,15.0,27.0,-999,-99.99,,,-99.99,,2013-01-29 05:22:00,
2013-01-28 20:32:00,30.0,-99.9,29.56,North,359,15.0,27.0,-999,-99.99,,,-99.99,,2013-01-29 05:32:00,
2013-01-28 20:43:00,30.0,-99.9,29.56,North,359,15.0,27.0,-999,-99.99,,,-99.99,,2013-01-29 05:43:00,
2013-01-28 20:52:00,30.0,-99.9,29.56,North,359,15.0,27.0,-999,-99.99,,,-99.99,,2013-01-29 05:52:00,
2013-01-28 22:11:00,-999.0,-99.9,29.50,North,359,19.0,28.0,-999,-99.99,,,-99.99,,2013-01-29 07:11:00,
2013-01-28 22:21:00,-999.0,-99.9,29.49,North,1,19.0,28.0,-999,-99.99,,,-99.99,,2013-01-29 07:21:00,
2013-01-28 22:30:00,-999.0,-99.9,29.48,North,358,16.0,26.0,-999,-99.99,,,-99.99,,2013-01-29 07:30:00,
2013-01-28 22:32:00,-999.0,-99.9,29.49,North,1,19.0,28.0,-999,-99.99,,,-99.99,,2013-01-29 07:32:00,
2013-01-28 22:42:00,-999.0,-99.9,29.49,North,357,17.0,25.0,-999,-99.99,,,-99.99,,2013-01-29 07:42:00,
2013-01-28 22:52:00,-999.0,-99.9,29.48,North,358,16.0,26.0,-999,-99.99,,,-99.99,,2013-01-29 07:52:00,
2013-01-28 23:02:00,-999.0,-99.9,29.48,North,358,16.0,26.0,-999,-99.99,,,-99.99,,2013-01-29 08:02:00,
2013-01-28 23:11:00,-999.0,-99.9,29.48,North,358,16.0,26.0,-999,-99.99,,,-99.99,,2013-01-29 08:11:00,
2013-01-28 23:21:00,-999.0,-99.9,29.48,North,358,16.0,26.0,-999,-99.99,,,-99.99,,2013-01-29 08:21:00,